sensor_id;sensor_type;location;lat;lon;timestamp;temperature;humidity
71514;DHT22;59335;46.652;21.272;2022-10-28T00:00:50;20.46;60.12
71514;DHT22;59335;46.652;21.272;2022-10-28T00:03:54;20.46;60.06
71514;DHT22;59335;46.652;21.272;2022-10-28T00:06:57;20.46;60.12
71514;DHT22;59335;46.652;21.272;2022-10-28T00:10:00;20.44;60.11
71514;DHT22;59335;46.652;21.272;2022-10-28T00:13:02;20.48;60.02
71514;DHT22;59335;46.652;21.272;2022-10-28T00:16:20;20.45;60.03
71514;DHT22;59335;46.652;21.272;2022-10-28T00:19:22;20.49;59.95
71514;DHT22;59335;46.652;21.272;2022-10-28T00:22:25;20.48;59.97
71514;DHT22;59335;46.652;21.272;2022-10-28T00:25:28;20.46;59.99
71514;DHT22;59335;46.652;21.272;2022-10-28T00:28:31;20.45;59.92
71514;DHT22;59335;46.652;21.272;2022-10-28T00:31:34;20.44;59.93
71514;DHT22;59335;46.652;21.272;2022-10-28T00:34:37;20.41;60.03
71514;DHT22;59335;46.652;21.272;2022-10-28T00:37:40;20.42;60.00
71514;DHT22;59335;46.652;21.272;2022-10-28T00:40:42;20.39;59.98
71514;DHT22;59335;46.652;21.272;2022-10-28T00:43:48;20.41;59.94
71514;DHT22;59335;46.652;21.272;2022-10-28T00:46:51;20.41;60.01
71514;DHT22;59335;46.652;21.272;2022-10-28T00:53:26;20.44;59.86
71514;DHT22;59335;46.652;21.272;2022-10-28T00:56:33;20.42;59.89
71514;DHT22;59335;46.652;21.272;2022-10-28T00:59:40;20.42;59.84
71514;DHT22;59335;46.652;21.272;2022-10-28T01:02:47;20.41;59.81
71514;DHT22;59335;46.652;21.272;2022-10-28T01:05:51;20.44;59.75
71514;DHT22;59335;46.652;21.272;2022-10-28T01:08:54;20.42;59.80
71514;DHT22;59335;46.652;21.272;2022-10-28T01:19:24;20.41;59.69
71514;DHT22;59335;46.652;21.272;2022-10-28T01:22:33;20.44;59.73
71514;DHT22;59335;46.652;21.272;2022-10-28T01:25:58;20.41;59.68
71514;DHT22;59335;46.652;21.272;2022-10-28T01:35:48;20.39;59.66
71514;DHT22;59335;46.652;21.272;2022-10-28T01:46:16;20.41;59.57
71514;DHT22;59335;46.652;21.272;2022-10-28T01:49:29;20.41;59.54
71514;DHT22;59335;46.652;21.272;2022-10-28T01:52:33;20.41;59.56
71514;DHT22;59335;46.652;21.272;2022-10-28T01:55:40;20.39;59.54
71514;DHT22;59335;46.652;21.272;2022-10-28T01:58:45;20.38;59.55
71514;DHT22;59335;46.652;21.272;2022-10-28T02:01:49;20.38;59.51
71514;DHT22;59335;46.652;21.272;2022-10-28T02:05:03;20.38;59.53
71514;DHT22;59335;46.652;21.272;2022-10-28T02:24:39;20.39;59.42
71514;DHT22;59335;46.652;21.272;2022-10-28T02:27:55;20.36;59.46
71514;DHT22;59335;46.652;21.272;2022-10-28T02:31:17;20.39;59.32
71514;DHT22;59335;46.652;21.272;2022-10-28T02:34:30;20.41;59.32
71514;DHT22;59335;46.652;21.272;2022-10-28T02:37:36;20.39;59.32
71514;DHT22;59335;46.652;21.272;2022-10-28T02:40:43;20.36;59.35
71514;DHT22;59335;46.652;21.272;2022-10-28T02:43:53;20.38;59.26
71514;DHT22;59335;46.652;21.272;2022-10-28T02:46:58;20.35;59.34
71514;DHT22;59335;46.652;21.272;2022-10-28T02:50:06;20.38;59.21
71514;DHT22;59335;46.652;21.272;2022-10-28T02:53:17;20.39;59.16
71514;DHT22;59335;46.652;21.272;2022-10-28T02:56:20;20.38;59.15
71514;DHT22;59335;46.652;21.272;2022-10-28T02:59:24;20.38;59.19
71514;DHT22;59335;46.652;21.272;2022-10-28T03:02:27;20.36;59.23
71514;DHT22;59335;46.652;21.272;2022-10-28T03:05:29;20.36;59.21
71514;DHT22;59335;46.652;21.272;2022-10-28T03:08:32;20.34;59.24
71514;DHT22;59335;46.652;21.272;2022-10-28T03:11:35;20.34;59.22
71514;DHT22;59335;46.652;21.272;2022-10-28T03:14:37;20.34;59.21
71514;DHT22;59335;46.652;21.272;2022-10-28T03:17:40;20.35;59.15
71514;DHT22;59335;46.652;21.272;2022-10-28T03:20:43;20.35;59.11
71514;DHT22;59335;46.652;21.272;2022-10-28T03:23:46;20.35;59.17
71514;DHT22;59335;46.652;21.272;2022-10-28T03:26:48;20.35;59.12
71514;DHT22;59335;46.652;21.272;2022-10-28T03:29:51;20.36;59.14
71514;DHT22;59335;46.652;21.272;2022-10-28T03:32:53;20.32;59.06
71514;DHT22;59335;46.652;21.272;2022-10-28T03:35:56;20.38;58.99
71514;DHT22;59335;46.652;21.272;2022-10-28T03:38:59;20.36;58.93
71514;DHT22;59335;46.652;21.272;2022-10-28T03:42:01;20.38;58.96
71514;DHT22;59335;46.652;21.272;2022-10-28T03:45:04;20.35;58.95
71514;DHT22;59335;46.652;21.272;2022-10-28T03:48:07;20.35;58.92
71514;DHT22;59335;46.652;21.272;2022-10-28T03:51:09;20.29;59.04
71514;DHT22;59335;46.652;21.272;2022-10-28T03:54:12;20.34;58.91
71514;DHT22;59335;46.652;21.272;2022-10-28T03:57:14;20.35;58.94
71514;DHT22;59335;46.652;21.272;2022-10-28T04:00:17;20.32;58.93
71514;DHT22;59335;46.652;21.272;2022-10-28T04:03:21;20.34;58.98
71514;DHT22;59335;46.652;21.272;2022-10-28T04:06:23;20.35;58.98
71514;DHT22;59335;46.652;21.272;2022-10-28T04:09:26;20.34;58.88
71514;DHT22;59335;46.652;21.272;2022-10-28T04:12:28;20.35;58.85
71514;DHT22;59335;46.652;21.272;2022-10-28T04:15:32;20.35;58.87
71514;DHT22;59335;46.652;21.272;2022-10-28T04:18:35;20.35;58.88
71514;DHT22;59335;46.652;21.272;2022-10-28T04:21:38;20.36;58.88
71514;DHT22;59335;46.652;21.272;2022-10-28T04:24:40;20.35;58.87
71514;DHT22;59335;46.652;21.272;2022-10-28T04:27:43;20.36;58.79
71514;DHT22;59335;46.652;21.272;2022-10-28T04:30:46;20.35;58.76
71514;DHT22;59335;46.652;21.272;2022-10-28T04:33:49;20.35;58.81
71514;DHT22;59335;46.652;21.272;2022-10-28T04:36:52;20.36;58.74
71514;DHT22;59335;46.652;21.272;2022-10-28T04:39:54;20.36;58.67
71514;DHT22;59335;46.652;21.272;2022-10-28T04:42:57;20.32;58.73
71514;DHT22;59335;46.652;21.272;2022-10-28T04:45:59;20.34;58.69
71514;DHT22;59335;46.652;21.272;2022-10-28T04:49:07;20.32;58.79
71514;DHT22;59335;46.652;21.272;2022-10-28T04:52:09;20.34;58.82
71514;DHT22;59335;46.652;21.272;2022-10-28T04:55:17;20.34;58.72
71514;DHT22;59335;46.652;21.272;2022-10-28T04:58:19;20.32;58.77
71514;DHT22;59335;46.652;21.272;2022-10-28T05:01:22;20.34;58.74
71514;DHT22;59335;46.652;21.272;2022-10-28T05:04:24;20.36;58.70
71514;DHT22;59335;46.652;21.272;2022-10-28T05:07:27;20.32;58.82
71514;DHT22;59335;46.652;21.272;2022-10-28T05:10:30;20.34;58.73
71514;DHT22;59335;46.652;21.272;2022-10-28T05:13:33;20.35;58.75
71514;DHT22;59335;46.652;21.272;2022-10-28T05:16:35;20.38;58.71
71514;DHT22;59335;46.652;21.272;2022-10-28T05:19:38;20.32;58.91
71514;DHT22;59335;46.652;21.272;2022-10-28T05:22:48;20.34;58.93
71514;DHT22;59335;46.652;21.272;2022-10-28T05:25:51;20.36;58.83
71514;DHT22;59335;46.652;21.272;2022-10-28T05:28:54;20.36;58.84
71514;DHT22;59335;46.652;21.272;2022-10-28T05:31:56;20.38;58.76
71514;DHT22;59335;46.652;21.272;2022-10-28T05:34:59;20.34;58.96
71514;DHT22;59335;46.652;21.272;2022-10-28T05:38:02;20.39;58.93
71514;DHT22;59335;46.652;21.272;2022-10-28T05:41:05;20.44;58.94
71514;DHT22;59335;46.652;21.272;2022-10-28T05:44:07;20.45;59.11
71514;DHT22;59335;46.652;21.272;2022-10-28T05:47:10;20.45;59.05
71514;DHT22;59335;46.652;21.272;2022-10-28T05:50:15;20.46;59.22
71514;DHT22;59335;46.652;21.272;2022-10-28T05:53:18;20.45;59.17
71514;DHT22;59335;46.652;21.272;2022-10-28T05:56:20;20.48;59.23
71514;DHT22;59335;46.652;21.272;2022-10-28T05:59:23;20.49;59.41
71514;DHT22;59335;46.652;21.272;2022-10-28T06:02:25;20.49;59.35
71514;DHT22;59335;46.652;21.272;2022-10-28T06:05:28;20.49;59.54
71514;DHT22;59335;46.652;21.272;2022-10-28T06:08:31;20.52;59.63
71514;DHT22;59335;46.652;21.272;2022-10-28T06:11:34;20.51;59.74
71514;DHT22;59335;46.652;21.272;2022-10-28T06:14:36;20.46;59.94
71514;DHT22;59335;46.652;21.272;2022-10-28T06:17:39;20.52;59.85
71514;DHT22;59335;46.652;21.272;2022-10-28T06:20:41;20.53;59.95
71514;DHT22;59335;46.652;21.272;2022-10-28T06:23:45;20.57;60.05
71514;DHT22;59335;46.652;21.272;2022-10-28T06:26:49;20.55;59.97
71514;DHT22;59335;46.652;21.272;2022-10-28T06:29:51;20.52;60.20
71514;DHT22;59335;46.652;21.272;2022-10-28T06:32:57;20.48;60.45
71514;DHT22;59335;46.652;21.272;2022-10-28T06:36:01;20.51;60.35
71514;DHT22;59335;46.652;21.272;2022-10-28T06:39:04;20.55;60.13
71514;DHT22;59335;46.652;21.272;2022-10-28T06:42:07;20.61;60.26
71514;DHT22;59335;46.652;21.272;2022-10-28T06:45:11;20.61;60.32
71514;DHT22;59335;46.652;21.272;2022-10-28T06:48:13;20.56;60.33
71514;DHT22;59335;46.652;21.272;2022-10-28T06:51:17;20.53;60.48
71514;DHT22;59335;46.652;21.272;2022-10-28T06:54:20;20.55;60.29
71514;DHT22;59335;46.652;21.272;2022-10-28T06:57:24;20.53;60.28
71514;DHT22;59335;46.652;21.272;2022-10-28T07:00:30;20.51;60.41
71514;DHT22;59335;46.652;21.272;2022-10-28T07:03:34;20.49;60.33
71514;DHT22;59335;46.652;21.272;2022-10-28T07:06:37;20.48;60.45
71514;DHT22;59335;46.652;21.272;2022-10-28T07:09:42;20.51;60.33
71514;DHT22;59335;46.652;21.272;2022-10-28T07:12:46;20.51;60.36
71514;DHT22;59335;46.652;21.272;2022-10-28T07:15:59;20.49;60.39
71514;DHT22;59335;46.652;21.272;2022-10-28T07:19:02;20.55;60.32
71514;DHT22;59335;46.652;21.272;2022-10-28T07:22:06;20.52;60.35
71514;DHT22;59335;46.652;21.272;2022-10-28T07:25:08;20.45;60.32
71514;DHT22;59335;46.652;21.272;2022-10-28T07:28:11;20.52;60.26
71514;DHT22;59335;46.652;21.272;2022-10-28T07:31:14;20.51;60.38
71514;DHT22;59335;46.652;21.272;2022-10-28T07:34:19;20.52;60.30
71514;DHT22;59335;46.652;21.272;2022-10-28T07:37:28;20.49;60.34
71514;DHT22;59335;46.652;21.272;2022-10-28T07:40:31;20.55;60.40
71514;DHT22;59335;46.652;21.272;2022-10-28T07:43:37;20.53;60.34
71514;DHT22;59335;46.652;21.272;2022-10-28T07:46:40;20.51;60.36
71514;DHT22;59335;46.652;21.272;2022-10-28T07:49:43;20.49;60.22
71514;DHT22;59335;46.652;21.272;2022-10-28T07:52:46;20.46;60.40
71514;DHT22;59335;46.652;21.272;2022-10-28T07:55:59;20.51;60.29
71514;DHT22;59335;46.652;21.272;2022-10-28T07:59:02;20.48;60.27
71514;DHT22;59335;46.652;21.272;2022-10-28T08:02:04;20.49;60.19
71514;DHT22;59335;46.652;21.272;2022-10-28T08:05:07;20.48;60.22
71514;DHT22;59335;46.652;21.272;2022-10-28T08:08:10;20.46;60.32
71514;DHT22;59335;46.652;21.272;2022-10-28T08:11:16;20.45;60.28
71514;DHT22;59335;46.652;21.272;2022-10-28T08:14:20;20.49;60.10
71514;DHT22;59335;46.652;21.272;2022-10-28T08:17:22;20.52;60.13
71514;DHT22;59335;46.652;21.272;2022-10-28T08:20:25;20.51;60.34
71514;DHT22;59335;46.652;21.272;2022-10-28T08:23:29;20.52;60.18
71514;DHT22;59335;46.652;21.272;2022-10-28T08:26:32;20.51;59.99
71514;DHT22;59335;46.652;21.272;2022-10-28T08:29:34;20.52;60.09
71514;DHT22;59335;46.652;21.272;2022-10-28T08:32:37;20.52;60.08
71514;DHT22;59335;46.652;21.272;2022-10-28T08:35:40;20.51;60.25
71514;DHT22;59335;46.652;21.272;2022-10-28T08:38:45;20.48;60.22
71514;DHT22;59335;46.652;21.272;2022-10-28T08:48:14;20.45;60.27
71514;DHT22;59335;46.652;21.272;2022-10-28T08:51:38;20.49;60.18
71514;DHT22;59335;46.652;21.272;2022-10-28T08:58:25;20.48;60.22
71514;DHT22;59335;46.652;21.272;2022-10-28T09:01:55;20.46;60.21
71514;DHT22;59335;46.652;21.272;2022-10-28T09:05:05;20.49;60.29
71514;DHT22;59335;46.652;21.272;2022-10-28T09:08:32;20.49;60.22
71514;DHT22;59335;46.652;21.272;2022-10-28T09:22:01;20.57;59.99
71514;DHT22;59335;46.652;21.272;2022-10-28T09:25:37;20.66;60.10
71514;DHT22;59335;46.652;21.272;2022-10-28T09:32:40;20.65;60.03
71514;DHT22;59335;46.652;21.272;2022-10-28T09:35:45;20.66;59.99
71514;DHT22;59335;46.652;21.272;2022-10-28T09:38:50;20.68;59.90
71514;DHT22;59335;46.652;21.272;2022-10-28T09:41:59;20.72;59.77
71514;DHT22;59335;46.652;21.272;2022-10-28T09:45:31;20.73;59.75
71514;DHT22;59335;46.652;21.272;2022-10-28T09:48:49;20.75;60.04
71514;DHT22;59335;46.652;21.272;2022-10-28T09:52:16;20.79;59.94
71514;DHT22;59335;46.652;21.272;2022-10-28T09:55:21;20.77;59.97
71514;DHT22;59335;46.652;21.272;2022-10-28T09:58:24;20.80;60.01
71514;DHT22;59335;46.652;21.272;2022-10-28T10:01:32;20.76;60.46
71514;DHT22;59335;46.652;21.272;2022-10-28T10:04:36;20.77;60.34
71514;DHT22;59335;46.652;21.272;2022-10-28T10:07:47;20.76;60.35
71514;DHT22;59335;46.652;21.272;2022-10-28T10:10:54;20.75;60.39
71514;DHT22;59335;46.652;21.272;2022-10-28T10:14:03;20.72;60.38
71514;DHT22;59335;46.652;21.272;2022-10-28T10:20:20;20.69;60.68
71514;DHT22;59335;46.652;21.272;2022-10-28T10:23:36;20.73;60.52
71514;DHT22;59335;46.652;21.272;2022-10-28T10:26:44;20.72;60.67
71514;DHT22;59335;46.652;21.272;2022-10-28T10:29:49;20.71;60.62
71514;DHT22;59335;46.652;21.272;2022-10-28T10:32:53;20.66;60.81
71514;DHT22;59335;46.652;21.272;2022-10-28T10:36:04;20.65;60.99
71514;DHT22;59335;46.652;21.272;2022-10-28T10:39:30;20.61;61.12
71514;DHT22;59335;46.652;21.272;2022-10-28T10:42:35;20.65;61.08
71514;DHT22;59335;46.652;21.272;2022-10-28T10:46:00;20.69;60.96
71514;DHT22;59335;46.652;21.272;2022-10-28T10:49:11;20.65;61.01
71514;DHT22;59335;46.652;21.272;2022-10-28T10:52:19;20.63;61.09
71514;DHT22;59335;46.652;21.272;2022-10-28T10:55:32;20.62;61.12
71514;DHT22;59335;46.652;21.272;2022-10-28T10:58:39;20.62;61.14
71514;DHT22;59335;46.652;21.272;2022-10-28T11:01:47;20.61;61.16
71514;DHT22;59335;46.652;21.272;2022-10-28T11:04:53;20.68;61.19
71514;DHT22;59335;46.652;21.272;2022-10-28T11:07:57;20.62;61.18
71514;DHT22;59335;46.652;21.272;2022-10-28T11:14:36;20.63;61.09
71514;DHT22;59335;46.652;21.272;2022-10-28T11:17:39;20.63;61.05
71514;DHT22;59335;46.652;21.272;2022-10-28T11:21:03;20.65;60.97
71514;DHT22;59335;46.652;21.272;2022-10-28T11:34:19;20.61;61.13
71514;DHT22;59335;46.652;21.272;2022-10-28T11:44:39;20.61;61.03
71514;DHT22;59335;46.652;21.272;2022-10-28T11:48:14;20.59;61.29
71514;DHT22;59335;46.652;21.272;2022-10-28T11:51:38;20.61;66.56
71514;DHT22;59335;46.652;21.272;2022-10-28T12:09:02;20.48;74.19
71514;DHT22;59335;46.652;21.272;2022-10-28T12:12:02;20.44;73.21
71514;DHT22;59335;46.652;21.272;2022-10-28T12:19:09;20.39;74.27
71514;DHT22;59335;46.652;21.272;2022-10-28T12:25:33;20.35;74.45
71514;DHT22;59335;46.652;21.272;2022-10-28T12:31:46;20.36;74.34
71514;DHT22;59335;46.652;21.272;2022-10-28T12:35:04;20.38;74.27
71514;DHT22;59335;46.652;21.272;2022-10-28T12:38:16;20.39;74.27
71514;DHT22;59335;46.652;21.272;2022-10-28T12:41:23;20.44;72.77
71514;DHT22;59335;46.652;21.272;2022-10-28T12:44:27;20.38;73.11
71514;DHT22;59335;46.652;21.272;2022-10-28T12:47:37;20.38;72.77
71514;DHT22;59335;46.652;21.272;2022-10-28T12:54:29;20.41;71.25
71514;DHT22;59335;46.652;21.272;2022-10-28T12:57:35;20.42;70.96
71514;DHT22;59335;46.652;21.272;2022-10-28T13:00:42;20.39;70.61
71514;DHT22;59335;46.652;21.272;2022-10-28T13:03:48;20.46;69.84
71514;DHT22;59335;46.652;21.272;2022-10-28T13:27:18;20.48;66.58
71514;DHT22;59335;46.652;21.272;2022-10-28T13:30:21;20.48;66.40
71514;DHT22;59335;46.652;21.272;2022-10-28T13:33:26;20.49;66.16
71514;DHT22;59335;46.652;21.272;2022-10-28T13:36:31;20.48;65.91
71514;DHT22;59335;46.652;21.272;2022-10-28T13:39:42;20.45;65.83
71514;DHT22;59335;46.652;21.272;2022-10-28T13:42:47;20.48;65.77
71514;DHT22;59335;46.652;21.272;2022-10-28T13:45:51;20.49;65.77
71514;DHT22;59335;46.652;21.272;2022-10-28T13:49:24;20.46;65.71
71514;DHT22;59335;46.652;21.272;2022-10-28T13:52:27;20.49;65.63
71514;DHT22;59335;46.652;21.272;2022-10-28T13:55:42;20.45;65.63
71514;DHT22;59335;46.652;21.272;2022-10-28T13:58:53;20.49;65.49
71514;DHT22;59335;46.652;21.272;2022-10-28T14:02:03;20.46;65.39
71514;DHT22;59335;46.652;21.272;2022-10-28T14:08:40;20.45;65.25
71514;DHT22;59335;46.652;21.272;2022-10-28T14:11:42;20.46;65.14
71514;DHT22;59335;46.652;21.272;2022-10-28T14:22:00;20.44;64.95
71514;DHT22;59335;46.652;21.272;2022-10-28T14:31:44;20.42;64.44
71514;DHT22;59335;46.652;21.272;2022-10-28T14:34:48;20.44;64.40
71514;DHT22;59335;46.652;21.272;2022-10-28T14:38:09;20.45;64.32
71514;DHT22;59335;46.652;21.272;2022-10-28T14:51:19;20.42;64.10
71514;DHT22;59335;46.652;21.272;2022-10-28T14:54:35;20.42;63.96
71514;DHT22;59335;46.652;21.272;2022-10-28T14:57:42;20.44;63.82
71514;DHT22;59335;46.652;21.272;2022-10-28T15:04:19;20.44;63.81
71514;DHT22;59335;46.652;21.272;2022-10-28T15:07:22;20.41;63.78
71514;DHT22;59335;46.652;21.272;2022-10-28T15:10:29;20.41;63.73
71514;DHT22;59335;46.652;21.272;2022-10-28T15:13:32;20.38;63.72
71514;DHT22;59335;46.652;21.272;2022-10-28T15:16:35;20.39;63.59
71514;DHT22;59335;46.652;21.272;2022-10-28T15:19:38;20.38;63.60
71514;DHT22;59335;46.652;21.272;2022-10-28T15:22:40;20.38;63.57
71514;DHT22;59335;46.652;21.272;2022-10-28T15:25:45;20.35;63.48
71514;DHT22;59335;46.652;21.272;2022-10-28T15:28:47;20.38;63.38
71514;DHT22;59335;46.652;21.272;2022-10-28T15:32:10;20.38;63.27
71514;DHT22;59335;46.652;21.272;2022-10-28T15:38:35;20.35;63.28
71514;DHT22;59335;46.652;21.272;2022-10-28T15:41:40;20.35;63.21
71514;DHT22;59335;46.652;21.272;2022-10-28T15:44:43;20.36;63.19
71514;DHT22;59335;46.652;21.272;2022-10-28T15:47:46;20.35;63.11
71514;DHT22;59335;46.652;21.272;2022-10-28T15:51:12;20.36;63.08
71514;DHT22;59335;46.652;21.272;2022-10-28T15:54:18;20.35;63.00
71514;DHT22;59335;46.652;21.272;2022-10-28T15:57:26;20.34;63.03
71514;DHT22;59335;46.652;21.272;2022-10-28T16:00:33;20.36;62.98
71514;DHT22;59335;46.652;21.272;2022-10-28T16:03:42;20.34;62.97
71514;DHT22;59335;46.652;21.272;2022-10-28T16:06:45;20.36;62.82
71514;DHT22;59335;46.652;21.272;2022-10-28T16:09:48;20.34;62.85
71514;DHT22;59335;46.652;21.272;2022-10-28T16:12:51;20.35;62.72
71514;DHT22;59335;46.652;21.272;2022-10-28T16:15:57;20.35;62.64
71514;DHT22;59335;46.652;21.272;2022-10-28T16:19:09;20.34;62.66
71514;DHT22;59335;46.652;21.272;2022-10-28T16:22:18;20.36;62.66
71514;DHT22;59335;46.652;21.272;2022-10-28T16:25:22;20.31;62.70
71514;DHT22;59335;46.652;21.272;2022-10-28T16:28:26;20.36;62.62
71514;DHT22;59335;46.652;21.272;2022-10-28T16:31:29;20.34;62.64
71514;DHT22;59335;46.652;21.272;2022-10-28T16:34:32;20.32;62.58
71514;DHT22;59335;46.652;21.272;2022-10-28T16:37:34;20.34;62.48
71514;DHT22;59335;46.652;21.272;2022-10-28T16:40:43;20.34;62.46
71514;DHT22;59335;46.652;21.272;2022-10-28T16:43:53;20.32;62.45
71514;DHT22;59335;46.652;21.272;2022-10-28T16:46:57;20.34;62.41
71514;DHT22;59335;46.652;21.272;2022-10-28T16:50:00;20.34;62.36
71514;DHT22;59335;46.652;21.272;2022-10-28T16:53:02;20.31;62.39
71514;DHT22;59335;46.652;21.272;2022-10-28T16:56:05;20.34;62.21
71514;DHT22;59335;46.652;21.272;2022-10-28T16:59:17;20.31;62.25
71514;DHT22;59335;46.652;21.272;2022-10-28T17:02:31;20.32;62.19
71514;DHT22;59335;46.652;21.272;2022-10-28T17:05:35;20.32;62.19
71514;DHT22;59335;46.652;21.272;2022-10-28T17:08:39;20.28;62.24
71514;DHT22;59335;46.652;21.272;2022-10-28T17:12:03;20.29;62.20
71514;DHT22;59335;46.652;21.272;2022-10-28T17:15:07;20.31;62.08
71514;DHT22;59335;46.652;21.272;2022-10-28T17:18:13;20.28;62.16
71514;DHT22;59335;46.652;21.272;2022-10-28T17:21:17;20.32;62.03
71514;DHT22;59335;46.652;21.272;2022-10-28T17:24:21;20.28;62.01
71514;DHT22;59335;46.652;21.272;2022-10-28T17:27:27;20.31;62.04
71514;DHT22;59335;46.652;21.272;2022-10-28T17:30:31;20.27;61.99
71514;DHT22;59335;46.652;21.272;2022-10-28T17:33:35;20.28;62.01
71514;DHT22;59335;46.652;21.272;2022-10-28T17:36:38;20.25;61.97
71514;DHT22;59335;46.652;21.272;2022-10-28T17:39:43;20.27;62.00
71514;DHT22;59335;46.652;21.272;2022-10-28T17:42:51;20.27;61.90
71514;DHT22;59335;46.652;21.272;2022-10-28T17:46:05;20.27;61.86
71514;DHT22;59335;46.652;21.272;2022-10-28T17:49:10;20.28;61.84
71514;DHT22;59335;46.652;21.272;2022-10-28T17:52:14;20.27;61.81
71514;DHT22;59335;46.652;21.272;2022-10-28T17:55:17;20.25;61.78
71514;DHT22;59335;46.652;21.272;2022-10-28T17:58:20;20.25;61.78
71514;DHT22;59335;46.652;21.272;2022-10-28T18:01:24;20.31;61.68
71514;DHT22;59335;46.652;21.272;2022-10-28T18:04:30;20.27;61.68
71514;DHT22;59335;46.652;21.272;2022-10-28T18:07:34;20.24;61.72
71514;DHT22;59335;46.652;21.272;2022-10-28T18:10:38;20.27;61.63
71514;DHT22;59335;46.652;21.272;2022-10-28T18:13:52;20.28;61.60
71514;DHT22;59335;46.652;21.272;2022-10-28T18:16:59;20.28;61.58
71514;DHT22;59335;46.652;21.272;2022-10-28T18:20:02;20.27;61.56
71514;DHT22;59335;46.652;21.272;2022-10-28T18:23:07;20.25;61.53
71514;DHT22;59335;46.652;21.272;2022-10-28T18:26:14;20.22;61.55
71514;DHT22;59335;46.652;21.272;2022-10-28T18:29:18;20.25;61.53
71514;DHT22;59335;46.652;21.272;2022-10-28T18:32:23;20.24;61.52
71514;DHT22;59335;46.652;21.272;2022-10-28T18:35:27;20.24;61.52
71514;DHT22;59335;46.652;21.272;2022-10-28T18:38:32;20.24;61.47
71514;DHT22;59335;46.652;21.272;2022-10-28T18:41:38;20.24;61.44
71514;DHT22;59335;46.652;21.272;2022-10-28T18:44:44;20.28;61.35
71514;DHT22;59335;46.652;21.272;2022-10-28T18:47:47;20.24;61.35
71514;DHT22;59335;46.652;21.272;2022-10-28T18:50:55;20.25;61.34
71514;DHT22;59335;46.652;21.272;2022-10-28T18:54:00;20.22;61.33
71514;DHT22;59335;46.652;21.272;2022-10-28T18:57:05;20.27;61.26
71514;DHT22;59335;46.652;21.272;2022-10-28T19:00:08;20.22;61.26
71514;DHT22;59335;46.652;21.272;2022-10-28T19:03:21;20.25;61.25
71514;DHT22;59335;46.652;21.272;2022-10-28T19:06:28;20.22;61.22
71514;DHT22;59335;46.652;21.272;2022-10-28T19:09:36;20.27;61.24
71514;DHT22;59335;46.652;21.272;2022-10-28T19:12:40;20.21;61.26
71514;DHT22;59335;46.652;21.272;2022-10-28T19:15:49;20.25;61.19
71514;DHT22;59335;46.652;21.272;2022-10-28T19:18:57;20.25;61.08
71514;DHT22;59335;46.652;21.272;2022-10-28T19:22:00;20.22;61.08
71514;DHT22;59335;46.652;21.272;2022-10-28T19:25:04;20.24;61.09
71514;DHT22;59335;46.652;21.272;2022-10-28T19:28:07;20.21;61.10
71514;DHT22;59335;46.652;21.272;2022-10-28T19:31:13;20.20;61.18
71514;DHT22;59335;46.652;21.272;2022-10-28T19:34:17;20.21;61.08
71514;DHT22;59335;46.652;21.272;2022-10-28T19:37:21;20.22;61.02
71514;DHT22;59335;46.652;21.272;2022-10-28T19:40:25;20.24;61.03
71514;DHT22;59335;46.652;21.272;2022-10-28T19:43:28;20.22;60.95
71514;DHT22;59335;46.652;21.272;2022-10-28T19:46:34;20.21;60.94
71514;DHT22;59335;46.652;21.272;2022-10-28T19:49:37;20.20;60.94
71514;DHT22;59335;46.652;21.272;2022-10-28T19:52:46;20.22;60.89
71514;DHT22;59335;46.652;21.272;2022-10-28T19:55:55;20.20;60.94
71514;DHT22;59335;46.652;21.272;2022-10-28T19:59:00;20.22;60.89
71514;DHT22;59335;46.652;21.272;2022-10-28T20:02:06;20.20;60.87
71514;DHT22;59335;46.652;21.272;2022-10-28T20:05:09;20.24;60.76
71514;DHT22;59335;46.652;21.272;2022-10-28T20:08:13;20.21;60.81
71514;DHT22;59335;46.652;21.272;2022-10-28T20:11:21;20.21;60.84
71514;DHT22;59335;46.652;21.272;2022-10-28T20:14:28;20.22;60.71
71514;DHT22;59335;46.652;21.272;2022-10-28T20:17:30;20.21;60.69
71514;DHT22;59335;46.652;21.272;2022-10-28T20:20:33;20.20;60.78
71514;DHT22;59335;46.652;21.272;2022-10-28T20:23:36;20.20;60.78
71514;DHT22;59335;46.652;21.272;2022-10-28T20:26:40;20.18;60.76
71514;DHT22;59335;46.652;21.272;2022-10-28T20:29:43;20.20;60.75
71514;DHT22;59335;46.652;21.272;2022-10-28T20:32:45;20.17;60.75
71514;DHT22;59335;46.652;21.272;2022-10-28T20:35:55;20.20;60.66
71514;DHT22;59335;46.652;21.272;2022-10-28T20:39:28;20.17;60.72
71514;DHT22;59335;46.652;21.272;2022-10-28T20:42:31;20.18;60.64
71514;DHT22;59335;46.652;21.272;2022-10-28T20:45:34;20.21;60.61
71514;DHT22;59335;46.652;21.272;2022-10-28T20:48:36;20.18;60.53
71514;DHT22;59335;46.652;21.272;2022-10-28T20:51:39;20.18;60.60
71514;DHT22;59335;46.652;21.272;2022-10-28T20:54:42;20.18;60.60
71514;DHT22;59335;46.652;21.272;2022-10-28T20:57:45;20.18;60.57
71514;DHT22;59335;46.652;21.272;2022-10-28T21:00:49;20.17;60.57
71514;DHT22;59335;46.652;21.272;2022-10-28T21:03:57;20.15;60.53
71514;DHT22;59335;46.652;21.272;2022-10-28T21:07:00;20.15;60.51
71514;DHT22;59335;46.652;21.272;2022-10-28T21:10:03;20.18;60.46
71514;DHT22;59335;46.652;21.272;2022-10-28T21:13:06;20.18;60.39
71514;DHT22;59335;46.652;21.272;2022-10-28T21:16:10;20.18;60.34
71514;DHT22;59335;46.652;21.272;2022-10-28T21:19:13;20.17;60.41
71514;DHT22;59335;46.652;21.272;2022-10-28T21:22:16;20.15;60.42
71514;DHT22;59335;46.652;21.272;2022-10-28T21:25:19;20.14;60.43
71514;DHT22;59335;46.652;21.272;2022-10-28T21:28:22;20.15;60.35
71514;DHT22;59335;46.652;21.272;2022-10-28T21:31:25;20.17;60.27
71514;DHT22;59335;46.652;21.272;2022-10-28T21:34:27;20.14;60.31
71514;DHT22;59335;46.652;21.272;2022-10-28T21:37:31;20.17;60.24
71514;DHT22;59335;46.652;21.272;2022-10-28T21:40:33;20.17;60.29
71514;DHT22;59335;46.652;21.272;2022-10-28T21:43:38;20.14;60.22
71514;DHT22;59335;46.652;21.272;2022-10-28T21:46:41;20.15;60.26
71514;DHT22;59335;46.652;21.272;2022-10-28T21:49:43;20.14;60.22
71514;DHT22;59335;46.652;21.272;2022-10-28T21:52:46;20.15;60.21
71514;DHT22;59335;46.652;21.272;2022-10-28T21:55:48;20.18;60.18
71514;DHT22;59335;46.652;21.272;2022-10-28T21:58:52;20.14;60.17
71514;DHT22;59335;46.652;21.272;2022-10-28T22:01:55;20.15;60.15
71514;DHT22;59335;46.652;21.272;2022-10-28T22:04:58;20.14;60.14
71514;DHT22;59335;46.652;21.272;2022-10-28T22:08:00;20.15;60.10